createdAt,value
2018-04-15T00:00:30.867Z,17
2018-04-15T00:01:32.274Z,17
2018-04-15T00:02:33.703Z,17
2018-04-15T00:03:35.040Z,16.9
2018-04-15T00:04:36.388Z,16.9
2018-04-15T00:05:37.769Z,16.9
2018-04-15T00:06:39.161Z,16.9
2018-04-15T00:07:40.601Z,16.9
2018-04-15T00:08:41.962Z,16.8
2018-04-15T00:09:43.332Z,16.7
2018-04-15T00:10:44.748Z,16.8
2018-04-15T00:11:46.107Z,16.8
2018-04-15T00:12:47.854Z,16.8
2018-04-15T00:13:49.301Z,16.8
2018-04-15T00:14:50.714Z,16.8
2018-04-15T00:15:52.069Z,16.8
2018-04-15T00:16:53.477Z,16.8
2018-04-15T00:17:54.951Z,16.8
2018-04-15T00:18:56.362Z,16.8
2018-04-15T00:19:57.737Z,16.7
2018-04-15T00:20:59.168Z,16.7
2018-04-15T00:22:00.598Z,16.7
2018-04-15T00:23:02.063Z,16.7
2018-04-15T00:24:03.451Z,16.7
2018-04-15T00:25:04.832Z,16.7
2018-04-15T00:26:06.384Z,16.7
2018-04-15T00:27:07.758Z,16.7
2018-04-15T00:28:09.515Z,16.7
2018-04-15T00:29:10.957Z,16.7
2018-04-15T00:30:12.339Z,16.6
2018-04-15T00:31:13.720Z,16.7
2018-04-15T00:32:15.071Z,16.6
2018-04-15T00:33:16.504Z,16.6
2018-04-15T00:34:17.903Z,16.6
2018-04-15T00:35:19.282Z,16.6
2018-04-15T00:36:22.681Z,16.6
2018-04-15T00:37:26.880Z,16.6
2018-04-15T00:38:28.415Z,16.6
2018-04-15T00:39:29.799Z,16.6
2018-04-15T00:40:31.143Z,16.6
2018-04-15T00:41:32.489Z,16.6
2018-04-15T00:42:33.827Z,16.6
2018-04-15T00:43:35.243Z,16.6
2018-04-15T00:44:36.798Z,16.4
2018-04-15T00:45:38.274Z,16.5
2018-04-15T00:46:40.006Z,16.5
2018-04-15T00:47:41.666Z,16.5
2018-04-15T00:48:43.290Z,16.5
2018-04-15T00:49:44.777Z,16.5
2018-04-15T00:50:46.248Z,16.5
2018-04-15T00:51:47.800Z,16.5
2018-04-15T00:52:49.331Z,16.4
2018-04-15T00:53:50.851Z,16.3
2018-04-15T00:54:52.444Z,16.4
2018-04-15T00:55:53.959Z,16.4
2018-04-15T00:56:55.323Z,16.5
2018-04-15T00:57:56.704Z,16.4
2018-04-15T00:58:58.091Z,16.4
2018-04-15T00:59:59.473Z,16.4
2018-04-15T01:01:00.927Z,16.4
2018-04-15T01:02:02.312Z,16.4
2018-04-15T01:03:03.664Z,16.4
2018-04-15T01:04:05.088Z,16.4
2018-04-15T01:05:06.509Z,16.4
2018-04-15T01:06:07.927Z,16.4
2018-04-15T01:07:09.271Z,16.4
2018-04-15T01:08:10.636Z,16.4
2018-04-15T01:09:12.026Z,16.4
2018-04-15T01:10:13.376Z,16.4
2018-04-15T01:11:16.728Z,16.4
2018-04-15T01:12:18.439Z,16.4
2018-04-15T01:13:19.830Z,16.4
2018-04-15T01:14:21.244Z,16.4
2018-04-15T01:15:22.570Z,16.3
2018-04-15T01:16:23.911Z,16.3
2018-04-15T01:17:25.331Z,16.3
2018-04-15T01:18:26.667Z,16.3
2018-04-15T01:19:28.134Z,16.3
2018-04-15T01:20:29.511Z,16.3
2018-04-15T01:21:30.920Z,16.3
2018-04-15T01:22:32.255Z,16.3
2018-04-15T01:23:33.602Z,16.3
2018-04-15T01:24:35.023Z,16.3
2018-04-15T01:25:36.381Z,16.2
2018-04-15T01:26:37.772Z,16.2
2018-04-15T01:27:39.136Z,16.2
2018-04-15T01:28:40.553Z,16.2
2018-04-15T01:29:41.968Z,16.2
2018-04-15T01:30:43.332Z,16.2
2018-04-15T01:31:44.887Z,16.2
2018-04-15T01:32:46.241Z,16.2
2018-04-15T01:33:47.635Z,16.1
2018-04-15T01:34:49.095Z,16.1
2018-04-15T01:35:50.544Z,16.1
2018-04-15T01:36:51.916Z,16.1
2018-04-15T01:37:53.322Z,16.1
2018-04-15T01:38:54.675Z,16.1
2018-04-15T01:39:56.113Z,16.1
2018-04-15T01:40:57.482Z,16.1
2018-04-15T01:41:59.520Z,16.1
2018-04-15T01:43:01.512Z,16.1
2018-04-15T01:44:02.891Z,16.1
2018-04-15T01:45:04.316Z,16.1
2018-04-15T01:46:05.756Z,16.1
2018-04-15T01:47:07.203Z,16.1
2018-04-15T01:48:08.670Z,16
2018-04-15T01:49:10.208Z,15.9
2018-04-15T01:50:11.898Z,16
2018-04-15T01:51:13.387Z,15.9
2018-04-15T01:52:15.120Z,16
2018-04-15T01:53:16.695Z,15.9
2018-04-15T01:54:18.355Z,16
2018-04-15T01:55:19.993Z,16
2018-04-15T01:56:21.496Z,16
2018-04-15T01:57:23.052Z,16
2018-04-15T01:58:24.755Z,16
2018-04-15T01:59:26.141Z,16
2018-04-15T02:00:27.536Z,16
2018-04-15T02:01:28.923Z,16
2018-04-15T02:02:30.281Z,16
2018-04-15T02:03:31.715Z,16
2018-04-15T02:04:33.090Z,15.9
2018-04-15T02:05:34.640Z,15.9
2018-04-15T02:06:36.007Z,16
2018-04-15T02:07:37.332Z,15.9
2018-04-15T02:08:38.736Z,15.9
2018-04-15T02:09:40.086Z,15.9
2018-04-15T02:10:41.538Z,15.9
2018-04-15T02:11:42.901Z,15.9
2018-04-15T02:12:44.527Z,15.9
2018-04-15T02:13:46.081Z,15.9
2018-04-15T02:14:47.506Z,15.9
2018-04-15T02:15:48.889Z,15.9
2018-04-15T02:16:50.241Z,15.9
2018-04-15T02:17:51.614Z,15.9
2018-04-15T02:18:52.952Z,15.9
2018-04-15T02:19:54.298Z,15.9
2018-04-15T02:20:55.727Z,15.9
2018-04-15T02:21:57.107Z,15.8
2018-04-15T02:22:58.780Z,15.9
2018-04-15T02:24:00.099Z,15.9
2018-04-15T02:25:01.509Z,15.9
2018-04-15T02:26:05.448Z,15.9
2018-04-15T02:27:06.832Z,15.9
2018-04-15T02:28:09.213Z,15.9
2018-04-15T02:29:10.671Z,15.8
2018-04-15T02:30:12.076Z,15.8
2018-04-15T02:31:13.788Z,15.8
2018-04-15T02:32:15.625Z,15.8
2018-04-15T02:33:16.993Z,15.8
2018-04-15T02:34:18.357Z,15.8
2018-04-15T02:35:19.733Z,15.8
2018-04-15T02:36:21.256Z,15.8
2018-04-15T02:37:22.602Z,15.8
2018-04-15T02:38:24.026Z,15.8
2018-04-15T02:39:25.440Z,15.8
2018-04-15T02:40:26.814Z,15.8
2018-04-15T02:41:28.233Z,15.8
2018-04-15T02:42:30.002Z,15.7
2018-04-15T02:43:31.442Z,15.8
2018-04-15T02:44:32.776Z,15.8
2018-04-15T02:45:34.115Z,15.6
2018-04-15T02:46:35.512Z,15.8
2018-04-15T02:47:36.848Z,15.8
2018-04-15T02:48:38.184Z,15.8
2018-04-15T02:49:39.649Z,15.8
2018-04-15T02:50:41.003Z,15.8
2018-04-15T02:51:42.739Z,15.8
2018-04-15T02:52:44.210Z,15.7
2018-04-15T02:53:45.949Z,15.7
2018-04-15T02:54:47.461Z,15.8
2018-04-15T02:55:48.945Z,15.7
2018-04-15T02:56:50.560Z,15.7
2018-04-15T02:57:52.029Z,15.7
2018-04-15T02:58:53.640Z,15.7
2018-04-15T02:59:55.108Z,15.7
2018-04-15T03:00:56.760Z,15.7
2018-04-15T03:01:58.615Z,15.7
2018-04-15T03:03:00.169Z,15.7
2018-04-15T03:04:01.633Z,15.7
2018-04-15T03:05:03.161Z,15.7
2018-04-15T03:06:04.562Z,15.7
2018-04-15T03:07:05.964Z,15.7
2018-04-15T03:08:07.292Z,15.7
2018-04-15T03:09:08.633Z,15.7
2018-04-15T03:10:10.035Z,15.6
2018-04-15T03:11:11.427Z,15.6
2018-04-15T03:12:12.831Z,15.6
2018-04-15T03:13:14.619Z,15.6
2018-04-15T03:14:15.981Z,15.6
2018-04-15T03:15:17.363Z,15.6
2018-04-15T03:16:18.737Z,15.6
2018-04-15T03:17:20.166Z,15.6
2018-04-15T03:18:21.583Z,15.6
2018-04-15T03:19:22.959Z,15.6
2018-04-15T03:20:24.303Z,15.6
2018-04-15T03:21:25.649Z,15.6
2018-04-15T03:22:27.056Z,15.6
2018-04-15T03:23:28.396Z,15.6
2018-04-15T03:24:29.764Z,15.6
2018-04-15T03:25:31.116Z,15.6
2018-04-15T03:26:32.509Z,15.6
2018-04-15T03:27:33.897Z,15.6
2018-04-15T03:28:35.280Z,15.6
2018-04-15T03:29:36.628Z,15.6
2018-04-15T03:30:38.023Z,15.6
2018-04-15T03:31:39.420Z,15.6
2018-04-15T03:32:40.874Z,15.4
2018-04-15T03:33:42.295Z,15.6
2018-04-15T03:34:43.673Z,15.6
2018-04-15T03:35:45.108Z,15.6
2018-04-15T03:36:46.564Z,15.6
2018-04-15T03:37:48.036Z,15.6
2018-04-15T03:38:49.416Z,15.5
2018-04-15T03:39:50.948Z,15.6
2018-04-15T03:40:52.308Z,15.6
2018-04-15T03:41:53.661Z,15.6
2018-04-15T03:42:55.149Z,15.5
2018-04-15T03:43:56.629Z,15.5
2018-04-15T03:44:57.911Z,15.5
2018-04-15T03:45:59.358Z,15.5
2018-04-15T03:47:01.287Z,15.5
2018-04-15T03:48:04.805Z,15.5
2018-04-15T03:49:06.136Z,15.5
2018-04-15T03:50:07.508Z,15.5
2018-04-15T03:51:08.868Z,15.5
2018-04-15T03:52:10.246Z,15.5
2018-04-15T03:53:11.704Z,15.4
2018-04-15T03:54:13.163Z,15.5
2018-04-15T03:55:14.541Z,15.5
2018-04-15T03:56:16.052Z,15.5
2018-04-15T03:57:17.541Z,15.5
2018-04-15T03:58:19.657Z,15.5
2018-04-15T03:59:21.324Z,15.5
2018-04-15T04:00:22.838Z,15.4
2018-04-15T04:01:24.324Z,15.5
2018-04-15T04:02:25.854Z,15.5
2018-04-15T04:03:27.534Z,15.5
2018-04-15T04:04:29.137Z,15.5
2018-04-15T04:05:30.664Z,15.5
2018-04-15T04:06:32.326Z,15.4
2018-04-15T04:07:33.916Z,15.4
2018-04-15T04:08:35.397Z,15.4
2018-04-15T04:09:36.725Z,15.4
2018-04-15T04:10:38.307Z,15.5
2018-04-15T04:11:40.085Z,15.4
2018-04-15T04:12:41.468Z,15.3
2018-04-15T04:13:42.867Z,15.4
2018-04-15T04:14:44.307Z,15.4
2018-04-15T04:15:45.672Z,15.4
2018-04-15T04:16:47.060Z,15.4
2018-04-15T04:17:48.447Z,15.3
2018-04-15T04:18:49.880Z,15.4
2018-04-15T04:19:51.723Z,15.4
2018-04-15T04:20:53.079Z,15.4
2018-04-15T04:21:54.416Z,15.4
2018-04-15T04:22:55.813Z,15.4
2018-04-15T04:23:57.227Z,15.4
2018-04-15T04:24:58.625Z,15.4
2018-04-15T04:25:59.988Z,15.4
2018-04-15T04:27:01.516Z,15.2
2018-04-15T04:28:02.939Z,15.4
2018-04-15T04:29:04.621Z,15.4
2018-04-15T04:30:05.976Z,15.4
2018-04-15T04:31:07.444Z,15.4
2018-04-15T04:32:08.831Z,15.4
2018-04-15T04:33:10.333Z,15.4
2018-04-15T04:34:11.807Z,15.4
2018-04-15T04:35:13.208Z,15.4
2018-04-15T04:36:14.550Z,15.4
2018-04-15T04:37:16.082Z,15.4
2018-04-15T04:38:17.485Z,15.4
2018-04-15T04:39:18.909Z,15.4
2018-04-15T04:40:20.295Z,15.4
2018-04-15T04:41:21.652Z,15.4
2018-04-15T04:42:22.999Z,15.4
2018-04-15T04:43:24.392Z,15.4
2018-04-15T04:44:25.815Z,15.4
2018-04-15T04:45:27.171Z,15.4
2018-04-15T04:46:28.512Z,15.4
2018-04-15T04:47:29.982Z,15.4
2018-04-15T04:48:31.357Z,15.4
2018-04-15T04:49:32.780Z,15.4
2018-04-15T04:50:34.120Z,15.4
2018-04-15T04:51:35.488Z,15.4
2018-04-15T04:52:36.870Z,15.4
2018-04-15T04:53:38.204Z,15.4
2018-04-15T04:54:39.811Z,15.4
2018-04-15T04:55:41.175Z,15.4
2018-04-15T04:56:42.624Z,15.4
2018-04-15T04:57:44.016Z,15.4
2018-04-15T04:58:45.576Z,15.3
2018-04-15T04:59:47.216Z,15.3
2018-04-15T05:00:48.875Z,15.4
2018-04-15T05:01:50.375Z,15.4
2018-04-15T05:02:51.824Z,15.3
2018-04-15T05:03:53.338Z,15.3
2018-04-15T05:04:54.912Z,15.3
2018-04-15T05:05:56.420Z,15.3
2018-04-15T05:06:58.420Z,15.3
2018-04-15T05:08:00.434Z,15.3
2018-04-15T05:09:01.833Z,15.3
2018-04-15T05:10:03.364Z,15.3
2018-04-15T05:11:04.718Z,15.3
2018-04-15T05:12:06.119Z,15.3
2018-04-15T05:13:07.493Z,15.3
2018-04-15T05:14:08.970Z,15.3
2018-04-15T05:15:10.387Z,15.3
2018-04-15T05:16:11.751Z,15.2
2018-04-15T05:17:13.117Z,15.3
2018-04-15T05:18:14.499Z,15.3
2018-04-15T05:19:15.871Z,15.3
2018-04-15T05:20:17.345Z,15.3
2018-04-15T05:21:18.746Z,15.3
2018-04-15T05:22:20.110Z,15.3
2018-04-15T05:23:21.484Z,15.3
2018-04-15T05:24:22.905Z,15.1
2018-04-15T05:25:24.292Z,15.3
2018-04-15T05:26:26.020Z,15.3
2018-04-15T05:27:27.372Z,15.3
2018-04-15T05:28:28.723Z,15.3
2018-04-15T05:29:30.135Z,15.3
2018-04-15T05:30:31.788Z,15.3
2018-04-15T05:31:33.170Z,15.1
2018-04-15T05:32:34.601Z,15.3
2018-04-15T05:33:35.952Z,15.3
2018-04-15T05:34:37.419Z,15.3
2018-04-15T05:35:38.833Z,15.3
2018-04-15T05:36:40.228Z,15.3
2018-04-15T05:37:41.669Z,15.3
2018-04-15T05:38:43.026Z,15.3
2018-04-15T05:39:46.504Z,15.3
2018-04-15T05:40:47.948Z,15.2
2018-04-15T05:41:49.506Z,15.3
2018-04-15T05:42:50.968Z,15.3
2018-04-15T05:43:52.466Z,15.3
2018-04-15T05:44:53.865Z,15.3
2018-04-15T05:45:55.388Z,15.3
2018-04-15T05:46:56.791Z,15.3
2018-04-15T05:47:58.185Z,15.3
2018-04-15T05:48:59.547Z,15.3
2018-04-15T05:50:00.984Z,15.3
2018-04-15T05:51:02.498Z,15.3
2018-04-15T05:52:03.921Z,15.3
2018-04-15T05:53:05.279Z,15.3
2018-04-15T05:54:06.684Z,15.3
2018-04-15T05:55:08.076Z,15.3
2018-04-15T05:56:09.494Z,15.3
2018-04-15T05:57:11.057Z,15.3
2018-04-15T05:58:12.470Z,15.3
2018-04-15T05:59:13.861Z,15.3
2018-04-15T06:00:15.265Z,15.3
2018-04-15T06:01:17.242Z,15.3
2018-04-15T06:02:19.119Z,15.3
2018-04-15T06:03:21.777Z,15.3
2018-04-15T06:04:23.490Z,15.3
2018-04-15T06:05:25.250Z,15.3
2018-04-15T06:06:26.917Z,15.3
2018-04-15T06:07:28.628Z,15.3
2018-04-15T06:08:30.144Z,15.3
2018-04-15T06:09:31.897Z,15.3
2018-04-15T06:10:33.544Z,15.2
2018-04-15T06:11:35.323Z,15.3
2018-04-15T06:12:37.088Z,15.3
2018-04-15T06:13:39.545Z,15.2
2018-04-15T06:14:44.359Z,15.3
2018-04-15T06:15:48.771Z,15.3
2018-04-15T06:16:56.029Z,15.3
2018-04-15T06:17:57.876Z,15.3
2018-04-15T06:18:59.521Z,15.3
2018-04-15T06:20:01.176Z,15.2
2018-04-15T06:21:02.755Z,15.3
2018-04-15T06:22:04.566Z,15.3
2018-04-15T06:23:06.805Z,15.3
2018-04-15T06:24:08.626Z,15.2
2018-04-15T06:25:10.345Z,15.3
2018-04-15T06:26:12.172Z,15.4
2018-04-15T06:27:13.896Z,15.4
2018-04-15T06:28:15.453Z,15.4
2018-04-15T06:29:17.094Z,15.3
2018-04-15T06:30:18.781Z,15.3
2018-04-15T06:31:20.500Z,15.2
2018-04-15T06:32:22.152Z,15.3
2018-04-15T06:33:23.985Z,15.3
2018-04-15T06:34:25.865Z,15.3
2018-04-15T06:35:27.580Z,15.3
2018-04-15T06:36:29.074Z,15.3
2018-04-15T06:37:30.511Z,15.3
2018-04-15T06:38:32.016Z,15.4
2018-04-15T06:39:33.411Z,15.4
2018-04-15T06:40:34.780Z,15.4
2018-04-15T06:41:36.150Z,15.4
2018-04-15T06:42:37.611Z,15.4
2018-04-15T06:43:39.077Z,15.4
2018-04-15T06:44:40.484Z,15.4
2018-04-15T06:45:41.878Z,15.4
2018-04-15T06:46:43.426Z,15.4
2018-04-15T06:47:44.839Z,15.4
2018-04-15T06:48:46.218Z,15.4
2018-04-15T06:49:47.595Z,15.4
2018-04-15T06:50:48.975Z,15.6
2018-04-15T06:51:50.403Z,15.6
2018-04-15T06:52:51.812Z,15.8
2018-04-15T06:53:53.289Z,15.9
2018-04-15T06:54:54.688Z,16
2018-04-15T06:55:56.079Z,16
2018-04-15T06:56:57.472Z,16.1
2018-04-15T06:57:58.950Z,16.1
2018-04-15T06:59:00.348Z,16.2
2018-04-15T07:00:01.750Z,16.2
2018-04-15T07:01:03.229Z,16.3
2018-04-15T07:02:04.661Z,16.3
2018-04-15T07:03:06.098Z,16.3
2018-04-15T07:04:07.539Z,16.3
2018-04-15T07:05:08.935Z,16.3
2018-04-15T07:06:10.459Z,16.4
2018-04-15T07:07:11.811Z,16.1
2018-04-15T07:08:13.361Z,16.5
2018-04-15T07:09:14.800Z,16.5
2018-04-15T07:10:16.282Z,16.6
2018-04-15T07:11:17.677Z,16.5
2018-04-15T07:12:19.115Z,16.6
2018-04-15T07:13:20.612Z,16.7
2018-04-15T07:14:22.201Z,16.6
2018-04-15T07:15:23.557Z,16.7
2018-04-15T07:16:26.771Z,16.7
2018-04-15T07:17:28.112Z,16.7
2018-04-15T07:18:29.709Z,16.7
2018-04-15T07:19:31.097Z,16.7
2018-04-15T07:20:32.496Z,16.8
2018-04-15T07:21:34.038Z,16.8
2018-04-15T07:22:35.917Z,16.8
2018-04-15T07:23:37.900Z,16.8
2018-04-15T07:24:39.778Z,16.8
2018-04-15T07:25:41.333Z,16.6
2018-04-15T07:26:43.089Z,16.8
2018-04-15T07:27:44.590Z,16.8
2018-04-15T07:28:46.797Z,16.8
2018-04-15T07:29:48.409Z,16.9
2018-04-15T07:30:49.976Z,16.9
2018-04-15T07:31:51.633Z,16.9
2018-04-15T07:32:53.748Z,17
2018-04-15T07:33:55.898Z,17
2018-04-15T07:34:57.880Z,17
2018-04-15T07:35:59.519Z,17
2018-04-15T07:37:05.763Z,17
2018-04-15T07:38:07.372Z,17
2018-04-15T07:39:10.449Z,16.9
2018-04-15T07:40:16.848Z,17
2018-04-15T07:41:18.327Z,17
2018-04-15T07:42:19.800Z,17
2018-04-15T07:43:21.612Z,17
2018-04-15T07:44:23.686Z,17
2018-04-15T07:45:25.311Z,17.1
2018-04-15T07:46:27.959Z,17.1
2018-04-15T07:47:29.689Z,17
2018-04-15T07:48:33.903Z,17.1
2018-04-15T07:49:35.861Z,17
2018-04-15T07:50:37.506Z,17
2018-04-15T07:51:39.236Z,17.1
2018-04-15T07:52:41.039Z,17.2
2018-04-15T07:53:42.990Z,17.2
2018-04-15T07:54:45.188Z,17.1
2018-04-15T07:55:47.248Z,17.2
2018-04-15T07:56:49.691Z,17.2
2018-04-15T07:57:51.519Z,17
2018-04-15T07:58:53.643Z,17.1
2018-04-15T07:59:55.693Z,17.3
2018-04-15T08:01:02.923Z,17.1
2018-04-15T08:02:04.884Z,17.3
2018-04-15T08:03:06.919Z,17.3
2018-04-15T08:04:08.604Z,17.2
2018-04-15T08:05:10.665Z,17.3
2018-04-15T08:06:13.429Z,17.4
2018-04-15T08:07:16.908Z,17.4
2018-04-15T08:08:18.695Z,17.4
2018-04-15T08:09:20.846Z,17.3
2018-04-15T08:10:22.769Z,17.4
2018-04-15T08:11:24.731Z,17.5
2018-04-15T08:12:31.622Z,17.5
2018-04-15T08:13:35.859Z,17.6
2018-04-15T08:14:37.328Z,17.6
2018-04-15T08:15:38.792Z,17.6
2018-04-15T08:16:40.546Z,17.5
2018-04-15T08:17:42.360Z,17.6
2018-04-15T08:18:44.262Z,17.6
2018-04-15T08:19:45.977Z,17.6
2018-04-15T08:20:48.035Z,17.6
2018-04-15T08:21:51.984Z,17.6
2018-04-15T08:22:53.911Z,17.7
2018-04-15T08:23:55.897Z,17.6
2018-04-15T08:24:57.658Z,17.7
2018-04-15T08:26:00.763Z,17.7
2018-04-15T08:27:04.840Z,17.6
2018-04-15T08:28:07.322Z,17.7
2018-04-15T08:29:10.432Z,17.6
2018-04-15T08:30:12.222Z,17.8
2018-04-15T08:31:14.165Z,17.8
2018-04-15T08:32:15.868Z,17.7
2018-04-15T08:33:17.571Z,17.8
2018-04-15T08:34:19.304Z,17.7
2018-04-15T08:35:20.998Z,17.8
2018-04-15T08:36:22.809Z,17.9
2018-04-15T08:37:24.736Z,17.9
2018-04-15T08:38:27.967Z,17.9
2018-04-15T08:39:29.529Z,17.9
2018-04-15T08:40:33.838Z,18
2018-04-15T08:41:35.387Z,18
2018-04-15T08:42:37.032Z,18
2018-04-15T08:43:38.544Z,18
2018-04-15T08:44:40.278Z,18
2018-04-15T08:45:43.338Z,18
2018-04-15T08:46:45.007Z,18.1
2018-04-15T08:47:46.521Z,18.1
2018-04-15T08:48:48.353Z,18.1
2018-04-15T08:49:49.720Z,18.2
2018-04-15T08:50:51.124Z,18.2
2018-04-15T08:51:52.815Z,18.2
2018-04-15T08:52:54.289Z,18.2
2018-04-15T08:53:55.761Z,18.3
2018-04-15T08:54:57.357Z,18.3
2018-04-15T08:55:58.847Z,18.2
2018-04-15T08:57:00.278Z,18.4
2018-04-15T08:58:01.650Z,18.4
2018-04-15T08:59:03.104Z,18.4
2018-04-15T09:00:04.551Z,18.4
2018-04-15T09:01:06.033Z,18.5
2018-04-15T09:02:07.523Z,18.4
2018-04-15T09:03:09.010Z,18.5
2018-04-15T09:04:10.647Z,18.6
2018-04-15T09:05:12.100Z,18.6
2018-04-15T09:06:13.511Z,18.6
2018-04-15T09:07:21.182Z,18.5
2018-04-15T09:08:22.781Z,18.5
2018-04-15T09:09:24.277Z,18.5
2018-04-15T09:10:25.714Z,18.7
2018-04-15T09:11:30.419Z,18.7
2018-04-15T09:12:32.193Z,18.7
2018-04-15T09:13:33.724Z,18.8
2018-04-15T09:14:35.121Z,18.8
2018-04-15T09:15:36.674Z,18.8
2018-04-15T09:16:38.076Z,18.8
2018-04-15T09:17:39.619Z,18.7
2018-04-15T09:18:40.999Z,18.8
2018-04-15T09:19:42.435Z,18.8
2018-04-15T09:20:44.136Z,18.9
2018-04-15T09:21:45.629Z,19
2018-04-15T09:22:47.134Z,18.9
2018-04-15T09:23:48.947Z,19
2018-04-15T09:24:51.994Z,19
2018-04-15T09:25:54.303Z,19
2018-04-15T09:26:59.046Z,19
2018-04-15T09:28:03.335Z,19
2018-04-15T09:29:06.593Z,18.9
2018-04-15T09:30:08.289Z,19.1
2018-04-15T09:31:10.374Z,19.1
2018-04-15T09:32:12.219Z,19.1
2018-04-15T09:33:13.951Z,19.1
2018-04-15T09:34:15.526Z,19.1
2018-04-15T09:35:20.070Z,19.2
2018-04-15T09:36:23.109Z,19.3
2018-04-15T09:37:24.617Z,19.2
2018-04-15T09:38:26.244Z,19.3
2018-04-15T09:39:27.785Z,19.3
2018-04-15T09:40:29.321Z,19.3
2018-04-15T09:41:30.831Z,19.3
2018-04-15T09:42:32.396Z,19.3
2018-04-15T09:43:34.010Z,19.4
2018-04-15T09:44:35.750Z,19.5
2018-04-15T09:45:37.351Z,19.5
2018-04-15T09:46:38.841Z,19.5
2018-04-15T09:47:40.350Z,19.5
2018-04-15T09:48:41.937Z,19.5
2018-04-15T09:49:43.582Z,19.5
2018-04-15T09:50:45.072Z,19.5
2018-04-15T09:51:46.602Z,19.5
2018-04-15T09:52:48.147Z,19.6
2018-04-15T09:53:49.749Z,19.5
2018-04-15T09:54:51.351Z,19.6
2018-04-15T09:55:52.974Z,19.7
2018-04-15T09:56:56.020Z,19.7
2018-04-15T09:57:57.528Z,19.7
2018-04-15T09:59:01.494Z,19.7
2018-04-15T10:00:03.207Z,19.8
2018-04-15T10:01:04.827Z,19.8
2018-04-15T10:02:06.372Z,19.8
2018-04-15T10:03:07.914Z,19.9
2018-04-15T10:04:09.705Z,19.9
2018-04-15T10:05:11.311Z,19.9
2018-04-15T10:06:12.865Z,19.8
2018-04-15T10:07:14.794Z,20
2018-04-15T10:08:16.304Z,20
2018-04-15T10:09:17.879Z,20
2018-04-15T10:10:19.401Z,20
2018-04-15T10:11:20.954Z,20.2
2018-04-15T10:12:22.522Z,20.1
2018-04-15T10:13:25.207Z,20.2
2018-04-15T10:14:26.901Z,20.5
2018-04-15T10:15:28.483Z,20.3
2018-04-15T10:16:30.111Z,20
2018-04-15T10:17:34.310Z,20.3
2018-04-15T10:18:35.861Z,20.2
2018-04-15T10:19:37.591Z,20.3
2018-04-15T10:20:39.275Z,20.4
2018-04-15T10:21:41.100Z,20.5
2018-04-15T10:22:48.030Z,20.5
2018-04-15T10:23:49.697Z,20.5
2018-04-15T10:24:51.381Z,20.5
2018-04-15T10:25:53.028Z,20.5
2018-04-15T10:26:54.908Z,20.6
2018-04-15T10:27:56.633Z,20.6
2018-04-15T10:28:58.307Z,20.4
2018-04-15T10:30:00.334Z,20.6
2018-04-15T10:31:01.901Z,20.6
2018-04-15T10:32:08.630Z,20.5
2018-04-15T10:33:10.236Z,20.6
2018-04-15T10:34:11.821Z,20.6
2018-04-15T10:35:13.519Z,20.7
2018-04-15T10:36:16.426Z,20.7
2018-04-15T10:37:18.019Z,20.7
2018-04-15T10:38:19.657Z,20.5
2018-04-15T10:39:23.340Z,20.6
2018-04-15T10:40:25.004Z,20.7
2018-04-15T10:41:26.764Z,20.7
2018-04-15T10:42:28.398Z,20.7
2018-04-15T10:43:30.282Z,20.7
2018-04-15T10:44:31.885Z,20.8
2018-04-15T10:45:33.639Z,20.8
2018-04-15T10:46:35.246Z,20.8
2018-04-15T10:47:36.892Z,20.8
2018-04-15T10:48:38.536Z,20.7
2018-04-15T10:49:40.274Z,20.8
2018-04-15T10:50:42.024Z,20.9
2018-04-15T10:51:43.700Z,20.9
2018-04-15T10:52:45.614Z,20.9
2018-04-15T10:53:47.293Z,20.9
2018-04-15T10:54:48.924Z,20.9
2018-04-15T10:55:50.484Z,20.9
2018-04-15T10:56:51.993Z,20.9
2018-04-15T10:57:53.673Z,21
2018-04-15T10:58:55.193Z,21
2018-04-15T10:59:57.002Z,21
2018-04-15T11:00:58.634Z,21
2018-04-15T11:02:00.165Z,21
2018-04-15T11:03:01.716Z,21
2018-04-15T11:04:03.240Z,21
2018-04-15T11:05:04.966Z,21
2018-04-15T11:06:06.692Z,21.1
2018-04-15T11:07:08.224Z,21.1
2018-04-15T11:08:09.828Z,21.1
2018-04-15T11:09:11.310Z,21.1
2018-04-15T11:10:12.869Z,21.1
2018-04-15T11:11:14.512Z,21
2018-04-15T11:12:16.057Z,21.1
2018-04-15T11:13:17.709Z,21.1
2018-04-15T11:14:19.308Z,21.1
2018-04-15T11:15:21.097Z,21.2
2018-04-15T11:16:22.696Z,21.2
2018-04-15T11:17:24.310Z,21.2
2018-04-15T11:18:28.908Z,21.2
2018-04-15T11:19:30.516Z,21
2018-04-15T11:20:31.990Z,21.2
2018-04-15T11:21:35.370Z,21.2
2018-04-15T11:22:36.893Z,21.3
2018-04-15T11:23:38.418Z,21.2
2018-04-15T11:24:39.969Z,21.3
2018-04-15T11:25:41.554Z,21.3
2018-04-15T11:26:43.217Z,21.3
2018-04-15T11:27:44.835Z,21.2
2018-04-15T11:28:46.873Z,21.3
2018-04-15T11:29:48.564Z,21.3
2018-04-15T11:30:50.192Z,21.3
2018-04-15T11:31:51.761Z,21.4
2018-04-15T11:32:53.362Z,21.4
2018-04-15T11:33:56.386Z,21.4
2018-04-15T11:34:58.022Z,21.4
2018-04-15T11:35:59.547Z,21.3
2018-04-15T11:37:02.083Z,21.4
2018-04-15T11:38:03.858Z,21.4
2018-04-15T11:39:05.426Z,21.5
2018-04-15T11:40:06.931Z,21.5
2018-04-15T11:41:08.484Z,21.5
2018-04-15T11:42:10.212Z,21.4
2018-04-15T11:43:11.747Z,21.4
2018-04-15T11:44:13.295Z,21.5
2018-04-15T11:45:14.757Z,21.5
2018-04-15T11:46:16.315Z,21.6
2018-04-15T11:47:17.978Z,21.6
2018-04-15T11:48:19.562Z,21.6
2018-04-15T11:49:21.209Z,21.6
2018-04-15T11:50:22.906Z,21.6
2018-04-15T11:51:24.801Z,21.6
2018-04-15T11:52:26.361Z,21.7
2018-04-15T11:53:27.851Z,21.7
2018-04-15T11:54:29.395Z,21.7
2018-04-15T11:55:30.900Z,21.7
2018-04-15T11:56:32.441Z,21.7
2018-04-15T11:57:34.121Z,21.6
2018-04-15T11:58:35.679Z,21.7
2018-04-15T11:59:37.293Z,21.7
2018-04-15T12:00:38.949Z,21.7
2018-04-15T12:01:40.666Z,21.8
2018-04-15T12:02:44.622Z,21.8
2018-04-15T12:03:46.239Z,21.8
2018-04-15T12:04:47.828Z,21.7
2018-04-15T12:05:49.503Z,21.8
2018-04-15T12:06:51.528Z,21.8
2018-04-15T12:07:53.215Z,21.8
2018-04-15T12:08:54.985Z,21.8
2018-04-15T12:09:56.552Z,21.8
2018-04-15T12:10:59.552Z,21.7
2018-04-15T12:12:01.267Z,21.8
2018-04-15T12:13:05.295Z,21.8
2018-04-15T12:14:06.968Z,21.8
2018-04-15T12:15:16.443Z,21.7
2018-04-15T12:16:18.139Z,21.8
2018-04-15T12:17:19.888Z,21.8
2018-04-15T12:18:21.663Z,21.7
2018-04-15T12:19:23.353Z,21.8
2018-04-15T12:20:27.587Z,21.8
2018-04-15T12:21:29.236Z,21.8
2018-04-15T12:22:31.801Z,21.8
2018-04-15T12:23:34.301Z,21.8
2018-04-15T12:24:36.046Z,21.8
2018-04-15T12:25:37.757Z,21.8
2018-04-15T12:26:39.466Z,21.8
2018-04-15T12:27:41.142Z,21.8
2018-04-15T12:28:43.100Z,21.7
2018-04-15T12:29:45.873Z,21.7
2018-04-15T12:30:47.453Z,21.8
2018-04-15T12:31:49.178Z,21.7
2018-04-15T12:32:50.932Z,21.7
2018-04-15T12:34:56.429Z,21.9
2018-04-15T12:35:58.336Z,21.9
2018-04-15T12:37:00.198Z,21.8
2018-04-15T12:38:05.050Z,21.8
2018-04-15T12:39:07.159Z,21.9
2018-04-15T12:40:09.042Z,21.8
2018-04-15T12:41:12.446Z,21.9
2018-04-15T12:42:14.187Z,21.9
2018-04-15T12:43:16.028Z,21.9
2018-04-15T12:44:17.995Z,21.8
2018-04-15T12:45:25.257Z,21.9
2018-04-15T12:46:27.051Z,21.9
2018-04-15T12:47:28.749Z,21.9
2018-04-15T12:48:30.685Z,21.9
2018-04-15T12:49:32.556Z,21.8
2018-04-15T12:50:34.267Z,21.9
2018-04-15T12:51:35.898Z,21.9
2018-04-15T12:52:40.961Z,21.9
2018-04-15T12:53:42.741Z,22
2018-04-15T12:54:44.813Z,22
2018-04-15T12:55:46.580Z,22
2018-04-15T12:56:48.210Z,22
2018-04-15T12:57:49.906Z,22
2018-04-15T12:58:51.600Z,22
2018-04-15T12:59:53.605Z,22
2018-04-15T13:00:55.428Z,22
2018-04-15T13:01:57.274Z,21.7
2018-04-15T13:02:59.301Z,22
2018-04-15T13:04:00.904Z,22
2018-04-15T13:05:05.876Z,22
2018-04-15T13:06:07.472Z,22
2018-04-15T13:07:09.066Z,21.9
2018-04-15T13:08:10.682Z,22
2018-04-15T13:09:13.013Z,22
2018-04-15T13:10:14.910Z,22
2018-04-15T13:11:16.479Z,22
2018-04-15T13:12:18.025Z,22
2018-04-15T13:13:19.813Z,22
2018-04-15T13:14:21.319Z,22.1
2018-04-15T13:15:22.961Z,22.1
2018-04-15T13:16:24.677Z,22.1
2018-04-15T13:17:26.261Z,22
2018-04-15T13:18:27.955Z,22
2018-04-15T13:19:30.672Z,22.1
2018-04-15T13:20:32.319Z,22
2018-04-15T13:21:33.866Z,22.1
2018-04-15T13:22:35.525Z,22.1
2018-04-15T13:23:37.128Z,22.1
2018-04-15T13:24:38.761Z,22.1
2018-04-15T13:25:40.457Z,22
2018-04-15T13:26:42.035Z,22.1
2018-04-15T13:27:43.726Z,22.1
2018-04-15T13:28:45.437Z,22.1
2018-04-15T13:29:46.961Z,21.9
2018-04-15T13:30:48.713Z,22.1
2018-04-15T13:31:52.077Z,22.1
2018-04-15T13:32:53.815Z,22
2018-04-15T13:33:55.528Z,22.1
2018-04-15T13:34:57.202Z,22.1
2018-04-15T13:35:59.104Z,22.1
2018-04-15T13:37:01.018Z,22.1
2018-04-15T13:38:02.696Z,22.1
2018-04-15T13:39:04.163Z,22.1
2018-04-15T13:40:06.213Z,22.1
2018-04-15T13:41:07.791Z,22.1
2018-04-15T13:42:09.897Z,22
2018-04-15T13:43:21.714Z,22.1
2018-04-15T13:44:23.348Z,22
2018-04-15T13:45:25.467Z,22.2
2018-04-15T13:46:27.139Z,22.2
2018-04-15T13:47:28.810Z,22.1
2018-04-15T13:48:30.358Z,22.2
2018-04-15T13:49:32.009Z,22.2